KDLZ

Delaware Municipal - Jim Moore Field Airport

Delaware, Ohio, USA
METAR KDLZ 210356Z AUTO 16005KT 10SM SCT035 SCT049 21/21 A2992 RMK AO2 LTG DSNT E
Observed Flight Rules
Aug-21 @ 03:56 UTC (13 minutes ago) Visual Flight Rules
Wind Visibility Clouds
160° at 5 knots 10 miles
  • Scattered at 3,500' AGL
  • Scattered at 4,900' AGL
Temperatures Readings
Current 21°C / 70°F
Dewpoint 21°C / 70°F
Humidity 100%
Altimeter 29.92" Hg
Pressure 1013 hPa
Elevation 289
METAR KDLZ 210356Z AUTO 16005KT 10SM SCT035 SCT049 21/21 A2992 RMK AO2 LTG DSNT E
Observed Flight Rules
Aug-21 @ 03:56 UTC
(13 minutes ago)
VFR
Wind Visibility
160° at 5 knots 10 miles
Clouds
  • Scattered at 3,500' AGL
  • Scattered at 4,900' AGL
Temperature Dewpoint
21°C / 70°F 21°C / 70°F
Humidity Altimeter Pressure
100% 29.92" Hg 1013 hPa